Time;durP1;ratioP1;P1;durP2;ratioP2;P2;SDS_P1;SDS_P2;PMS_P1;PMS_P2;Temp;Humidity;BMP_temperature;BMP_pressure;BME280_temperature;BME280_humidity;BME280_pressure;Samples;Min_cycle;Max_cycle;Signal;HPM_P1;HPM_P2
2022/09/09 00:01:20;;;;;;;8.00;2.20;;;;;;;13.42;63.78;99666.20;104981;1273;73273;-73
2022/09/09 00:04:32;;;;;;;6.70;2.10;;;;;;;13.42;63.45;99667.60;104793;1273;68106;-70
2022/09/09 00:07:45;;;;;;;8.50;2.00;;;;;;;13.42;62.99;99660.52;105039;1273;74426;-70
2022/09/09 00:10:42;;;;;;;6.90;2.20;;;;;;;13.41;62.81;99657.40;105083;1273;59785;-70
2022/09/09 00:13:52;;;;;;;7.60;2.20;;;;;;;13.40;62.66;99659.64;104780;1273;60642;-70
2022/09/09 00:16:47;;;;;;;10.80;2.20;;;;;;;13.38;62.47;99658.38;104644;1274;74732;-71
2022/09/09 00:20:00;;;;;;;9.80;2.40;;;;;;;13.36;62.34;99655.90;104818;1273;69975;-69
2022/09/09 00:23:24;;;;;;;8.60;2.30;;;;;;;13.34;62.37;99649.84;105262;1273;74031;-71
2022/09/09 00:26:29;;;;;;;6.00;1.70;;;;;;;13.31;62.05;99647.27;104887;1273;59646;-71
2022/09/09 00:29:45;;;;;;;8.30;1.70;;;;;;;13.28;61.91;99646.05;104753;1273;59685;-71
2022/09/09 00:32:35;;;;;;;8.80;2.30;;;;;;;13.26;61.80;99641.88;105104;1273;73850;-70
2022/09/09 00:35:36;;;;;;;9.60;2.30;;;;;;;13.24;61.83;99641.48;104803;1273;67988;-70
2022/09/09 00:38:36;;;;;;;7.20;2.00;;;;;;;13.22;61.80;99638.15;104986;1273;73384;-70
2022/09/09 00:41:39;;;;;;;7.60;2.00;;;;;;;13.21;61.89;99633.39;104801;1274;59545;-69
2022/09/09 00:44:35;;;;;;;7.00;2.20;;;;;;;13.20;62.05;99631.91;105022;1273;61060;-71
2022/09/09 00:47:52;;;;;;;6.60;2.10;;;;;;;13.19;62.10;99628.46;104804;1273;72689;-72
2022/09/09 00:51:13;;;;;;;6.90;2.10;;;;;;;13.18;61.96;99631.79;104867;1273;66750;-70
2022/09/09 00:54:20;;;;;;;8.30;2.20;;;;;;;13.16;61.88;99633.00;104901;1273;74433;-71
2022/09/09 00:57:28;;;;;;;8.60;2.10;;;;;;;13.15;61.91;99627.77;104790;1272;59734;-71
2022/09/09 01:00:39;;;;;;;7.90;2.10;;;;;;;13.14;61.91;99632.50;105053;1273;59525;-71
2022/09/09 01:03:49;;;;;;;7.40;1.90;;;;;;;13.12;61.81;99626.66;104745;1273;73872;-70
2022/09/09 01:06:38;;;;;;;8.30;2.10;;;;;;;13.12;61.74;99630.88;104078;1273;67031;-69
2022/09/09 01:09:56;;;;;;;6.60;2.00;;;;;;;13.11;61.87;99632.57;104812;1274;72276;-71
2022/09/09 01:12:47;;;;;;;8.40;3.30;;;;;;;13.10;61.70;99629.08;104857;1273;59762;-69
2022/09/09 01:15:41;;;;;;;7.00;2.00;;;;;;;13.11;61.76;99632.40;104680;1274;59643;-70
2022/09/09 01:18:53;;;;;;;9.50;2.30;;;;;;;13.13;61.49;99628.55;105127;1273;75038;-70
2022/09/09 01:22:01;;;;;;;8.10;2.10;;;;;;;13.15;61.44;99631.36;104705;1274;68849;-71
2022/09/09 01:25:28;;;;;;;6.50;1.90;;;;;;;13.16;61.39;99633.33;104605;1273;74240;-72
2022/09/09 01:28:28;;;;;;;7.20;2.10;;;;;;;13.17;61.32;99632.02;104840;1273;59696;-71
2022/09/09 01:31:41;;;;;;;9.00;2.50;;;;;;;13.18;61.29;99637.64;104982;1273;60246;-71
2022/09/09 01:34:39;;;;;;;6.50;1.90;;;;;;;13.18;61.19;99633.55;104593;1274;74010;-69
2022/09/09 01:37:28;;;;;;;7.60;2.00;;;;;;;13.18;61.02;99637.80;104915;1273;69514;-71
2022/09/09 01:40:17;;;;;;;6.90;2.20;;;;;;;13.19;60.92;99637.34;104894;1273;74197;-70
2022/09/09 01:43:07;;;;;;;7.90;2.30;;;;;;;13.20;61.04;99639.43;104661;1273;59749;-69
2022/09/09 01:46:00;;;;;;;8.50;1.90;;;;;;;13.20;60.94;99638.33;105134;1273;60237;-69
2022/09/09 01:48:53;;;;;;;6.00;2.10;;;;;;;13.21;61.01;99639.53;104527;1273;74786;-71
2022/09/09 01:51:43;;;;;;;7.60;1.90;;;;;;;13.21;60.94;99637.37;104861;1273;67795;-71
2022/09/09 01:54:34;;;;;;;5.30;1.60;;;;;;;13.22;60.80;99642.94;104793;1273;74477;-71
2022/09/09 01:57:39;;;;;;;8.30;2.00;;;;;;;13.22;60.79;99638.13;104763;1273;59633;-69
2022/09/09 02:00:31;;;;;;;7.90;1.90;;;;;;;13.22;60.72;99634.19;105006;1273;61359;-71
2022/09/09 02:03:33;;;;;;;7.20;1.90;;;;;;;13.22;60.70;99632.38;104804;1273;71858;-71
2022/09/09 02:06:38;;;;;;;7.10;2.10;;;;;;;13.23;60.76;99630.58;104713;1273;66848;-71
2022/09/09 02:09:42;;;;;;;6.10;1.70;;;;;;;13.24;60.65;99629.09;104803;1273;71634;-70
2022/09/09 02:12:31;;;;;;;8.00;2.00;;;;;;;13.23;60.70;99626.95;104701;1273;59728;-70
2022/09/09 02:15:39;;;;;;;7.40;2.30;;;;;;;13.23;60.73;99630.32;104870;1274;61385;-70
2022/09/09 02:18:47;;;;;;;8.90;2.20;;;;;;;13.23;60.74;99629.65;105130;1273;73745;-71
2022/09/09 02:21:36;;;;;;;7.20;2.20;;;;;;;13.23;60.72;99629.79;104666;1273;66545;-70
2022/09/09 02:24:26;;;;;;;6.70;2.30;;;;;;;13.23;60.64;99629.08;104914;1273;71660;-71
2022/09/09 02:27:24;;;;;;;6.50;1.80;;;;;;;13.23;60.57;99629.08;104747;1273;59973;-70
2022/09/09 02:30:13;;;;;;;9.60;2.10;;;;;;;13.24;60.55;99629.06;104514;1276;61856;-70
2022/09/09 02:33:07;;;;;;;7.10;1.90;;;;;;;13.24;60.62;99631.52;104441;1276;73851;-71
2022/09/09 02:36:03;;;;;;;9.60;2.00;;;;;;;13.24;60.59;99632.98;104468;1276;69389;-70
2022/09/09 02:38:53;;;;;;;7.50;1.90;;;;;;;13.24;60.58;99634.40;104475;1276;73340;-72
2022/09/09 02:41:44;;;;;;;8.70;2.00;;;;;;;13.23;60.68;99635.52;104477;1276;59849;-73
2022/09/09 02:44:32;;;;;;;8.10;2.10;;;;;;;13.23;60.73;99635.90;104414;1276;59630;-71
2022/09/09 02:47:34;;;;;;;6.10;1.80;;;;;;;13.22;60.47;99633.00;104515;1276;74729;-73
2022/09/09 02:50:35;;;;;;;8.80;2.40;;;;;;;13.22;60.63;99636.38;104554;1276;68018;-71
2022/09/09 02:53:40;;;;;;;10.60;2.30;;;;;;;13.20;60.47;99637.39;104897;1276;71551;-70
2022/09/09 02:56:34;;;;;;;8.10;2.30;;;;;;;13.20;60.40;99633.58;104702;1276;59750;-70
2022/09/09 02:59:26;;;;;;;7.60;2.20;;;;;;;13.18;60.43;99631.77;104435;1276;60706;-73
2022/09/09 03:02:14;;;;;;;7.30;2.10;;;;;;;13.17;60.37;99635.05;104627;1273;75046;-71
2022/09/09 03:05:05;;;;;;;7.70;2.00;;;;;;;13.16;60.41;99635.30;104946;1273;68061;-68
2022/09/09 03:07:53;;;;;;;9.40;2.40;;;;;;;13.15;60.28;99637.45;104725;1273;71300;-71
2022/09/09 03:10:41;;;;;;;11.30;2.20;;;;;;;13.12;61.53;99637.18;104845;1273;59773;-71
2022/09/09 03:13:30;;;;;;;9.20;2.30;;;;;;;13.01;62.96;99636.54;104839;1273;60851;-71
2022/09/09 03:16:18;;;;;;;8.40;2.60;;;;;;;12.89;64.03;99639.27;104685;1273;72115;-72
2022/09/09 03:19:09;;;;;;;9.90;3.30;;;;;;;12.75;65.39;99637.92;104911;1273;68459;-70
2022/09/09 03:21:58;;;;;;;7.30;2.10;;;;;;;12.61;66.26;99636.02;105093;1273;71571;-71
2022/09/09 03:24:47;;;;;;;8.60;1.90;;;;;;;12.52;67.47;99640.27;104817;1274;59682;-72
2022/09/09 03:27:35;;;;;;;8.90;2.30;;;;;;;12.35;70.75;99643.02;105114;1273;59644;-71
2022/09/09 03:30:26;;;;;;;9.30;2.20;;;;;;;12.19;71.81;99652.46;104973;1273;73572;-71
2022/09/09 03:33:16;;;;;;;8.30;2.00;;;;;;;12.02;73.28;99655.12;104750;1273;69880;-70
2022/09/09 03:36:05;;;;;;;8.80;2.40;;;;;;;11.85;75.96;99661.40;104812;1273;74651;-68
2022/09/09 03:38:55;;;;;;;8.20;2.50;;;;;;;11.66;78.22;99658.42;104593;1273;59802;-67
2022/09/09 03:41:46;;;;;;;12.40;2.90;;;;;;;11.46;82.12;99671.08;104787;1274;61663;-70
2022/09/09 03:44:35;;;;;;;8.10;2.50;;;;;;;10.97;93.39;99673.50;104869;1273;74736;-68
2022/09/09 03:47:22;;;;;;;8.70;2.50;;;;;;;10.64;96.35;99675.36;104710;1274;68300;-66
2022/09/09 03:50:15;;;;;;;8.10;2.90;;;;;;;10.47;98.27;99674.82;104700;1273;74496;-68
2022/09/09 03:53:05;;;;;;;7.60;3.10;;;;;;;10.33;99.47;99681.69;105118;1273;59796;-68
2022/09/09 03:55:59;;;;;;;8.30;2.60;;;;;;;10.19;100.00;99683.64;104696;1273;62040;-65
2022/09/09 03:58:47;;;;;;;11.20;3.20;;;;;;;10.12;100.00;99688.83;104798;1273;74436;-70
2022/09/09 04:01:35;;;;;;;12.40;3.10;;;;;;;10.07;100.00;99690.34;104679;1273;66047;-72
2022/09/09 04:04:24;;;;;;;8.30;2.60;;;;;;;10.03;100.00;99692.61;104620;1273;74156;-70
2022/09/09 04:07:15;;;;;;;8.10;2.80;;;;;;;10.00;100.00;99693.58;106320;1273;59615;-71
2022/09/09 04:10:05;;;;;;;8.60;3.30;;;;;;;9.97;100.00;99688.60;105332;1273;60770;-71
2022/09/09 04:12:53;;;;;;;9.20;3.10;;;;;;;9.97;100.00;99691.63;104675;1273;73805;-71
2022/09/09 04:15:42;;;;;;;9.50;3.20;;;;;;;9.96;100.00;99689.04;103924;1273;1003052;-72
2022/09/09 04:18:31;;;;;;;9.40;3.40;;;;;;;9.96;100.00;99694.71;104753;1273;74384;-70
2022/09/09 04:21:19;;;;;;;7.50;2.90;;;;;;;10.00;100.00;99693.02;104485;1276;59763;-72
2022/09/09 04:24:08;;;;;;;9.60;3.40;;;;;;;9.96;100.00;99697.40;104895;1273;59631;-72
2022/09/09 04:26:57;;;;;;;9.30;3.50;;;;;;;9.97;100.00;99692.90;104883;1273;72023;-73
2022/09/09 04:29:45;;;;;;;10.00;4.40;;;;;;;9.99;100.00;99692.20;104789;1273;68106;-71
2022/09/09 04:32:34;;;;;;;9.90;3.70;;;;;;;10.01;100.00;99688.50;104421;1279;72922;-73
2022/09/09 04:35:22;;;;;;;8.90;3.50;;;;;;;10.04;100.00;99694.32;104895;1276;59752;-71
2022/09/09 04:38:10;;;;;;;8.90;3.60;;;;;;;10.06;100.00;99699.44;104648;1276;61919;-72
2022/09/09 04:40:59;;;;;;;9.40;3.70;;;;;;;10.08;100.00;99701.41;104965;1276;71905;-72
2022/09/09 04:43:48;;;;;;;9.10;3.80;;;;;;;10.09;100.00;99700.80;104724;1276;66788;-71
2022/09/09 04:46:41;;;;;;;9.40;3.70;;;;;;;10.09;100.00;99710.34;104641;1277;71630;-70
2022/09/09 04:49:31;;;;;;;9.40;3.40;;;;;;;10.10;100.00;99710.86;104619;1276;59774;-71
2022/09/09 04:52:20;;;;;;;11.60;3.90;;;;;;;10.09;100.00;99711.77;104764;1276;61396;-70
2022/09/09 04:55:09;;;;;;;10.50;3.60;;;;;;;10.10;100.00;99708.89;104413;1277;74936;-70
2022/09/09 04:57:57;;;;;;;9.30;3.50;;;;;;;10.09;100.00;99711.98;104730;1276;67812;-72
2022/09/09 05:00:46;;;;;;;11.00;4.40;;;;;;;10.08;100.00;99713.44;103985;1277;1002772;-71
2022/09/09 05:03:34;;;;;;;10.10;3.50;;;;;;;10.08;100.00;99710.80;104867;1276;61196;-72
2022/09/09 05:06:23;;;;;;;11.20;4.10;;;;;;;10.07;100.00;99714.05;104910;1273;60490;-70
2022/09/09 05:09:15;;;;;;;11.30;5.40;;;;;;;10.08;100.00;99717.20;104872;1273;73340;-72
2022/09/09 05:12:04;;;;;;;9.30;3.90;;;;;;;10.04;100.00;99720.88;104800;1275;69091;-74
2022/09/09 05:14:55;;;;;;;9.70;4.30;;;;;;;10.04;100.00;99723.31;104873;1273;74781;-72
2022/09/09 05:17:43;;;;;;;10.90;3.80;;;;;;;10.02;100.00;99722.60;104846;1273;61321;-70
2022/09/09 05:20:31;;;;;;;8.40;3.40;;;;;;;10.03;100.00;99726.44;104908;1273;60957;-74
2022/09/09 05:23:20;;;;;;;10.00;4.30;;;;;;;10.01;100.00;99724.32;104825;1274;72995;-74
2022/09/09 05:26:14;;;;;;;8.10;3.70;;;;;;;10.02;100.00;99728.81;104875;1273;69569;-73
2022/09/09 05:29:08;;;;;;;12.30;4.10;;;;;;;10.00;100.00;99732.92;105004;1273;71905;-73
2022/09/09 05:31:56;;;;;;;8.90;3.20;;;;;;;10.00;100.00;99729.34;104835;1273;59771;-72
2022/09/09 05:34:44;;;;;;;9.40;3.20;;;;;;;10.00;100.00;99728.05;104647;1273;59640;-72
2022/09/09 05:37:34;;;;;;;9.90;4.00;;;;;;;10.02;100.00;99727.39;104698;1273;75023;-72
2022/09/09 05:40:23;;;;;;;9.10;3.50;;;;;;;10.02;100.00;99726.66;104906;1273;69567;-69
2022/09/09 05:43:11;;;;;;;10.80;4.20;;;;;;;10.02;100.00;99725.48;104701;1273;73220;-72
2022/09/09 05:46:10;;;;;;;8.80;3.40;;;;;;;10.00;100.00;99723.30;104778;1273;60249;-71
2022/09/09 05:48:58;;;;;;;9.40;3.80;;;;;;;10.01;100.00;99722.48;104932;1274;59635;-70
2022/09/09 05:51:50;;;;;;;11.80;3.90;;;;;;;10.03;100.00;99723.61;105601;1273;73721;-71
2022/09/09 05:54:40;;;;;;;9.20;3.50;;;;;;;10.03;100.00;99732.42;104835;1274;68571;-71
2022/09/09 05:57:28;;;;;;;9.40;3.90;;;;;;;10.03;100.00;99734.04;104859;1273;74351;-71
2022/09/09 06:00:16;;;;;;;10.40;3.10;;;;;;;10.04;100.00;99730.10;104769;1275;60158;-72
2022/09/09 06:03:05;;;;;;;8.30;2.80;;;;;;;9.99;100.00;99732.96;104621;1274;62042;-71
2022/09/09 06:06:05;;;;;;;9.40;3.10;;;;;;;9.96;100.00;99734.84;104842;1275;73314;-70
2022/09/09 06:08:58;;;;;;;9.60;3.00;;;;;;;9.95;100.00;99733.34;104776;1274;68656;-72
2022/09/09 06:11:50;;;;;;;10.10;3.40;;;;;;;9.97;100.00;99738.23;104839;1273;72303;-72
2022/09/09 06:14:39;;;;;;;8.00;3.40;;;;;;;9.99;100.00;99741.84;104838;1273;60112;-70
2022/09/09 06:17:33;;;;;;;8.20;3.10;;;;;;;9.99;100.00;99740.41;105077;1273;60518;-72
2022/09/09 06:20:22;;;;;;;8.00;3.00;;;;;;;9.97;100.00;99742.53;104627;1273;74723;-72
2022/09/09 06:23:10;;;;;;;7.80;3.30;;;;;;;9.97;100.00;99744.34;104893;1273;68679;-70
2022/09/09 06:26:26;;;;;;;7.20;3.00;;;;;;;9.97;100.00;99740.54;104767;1275;73357;-71
2022/09/09 06:29:15;;;;;;;8.10;3.10;;;;;;;9.97;100.00;99743.96;104579;1274;59707;-70
2022/09/09 06:32:04;;;;;;;9.70;2.90;;;;;;;9.96;100.00;99747.06;104840;1274;60505;-70
2022/09/09 06:34:51;;;;;;;9.30;3.20;;;;;;;9.95;100.00;99747.86;104790;1275;74782;-70
2022/09/09 06:37:39;;;;;;;11.80;3.50;;;;;;;9.94;100.00;99750.59;104625;1275;68663;-70
2022/09/09 06:40:27;;;;;;;8.30;3.30;;;;;;;9.91;100.00;99749.23;104861;1275;74379;-72
2022/09/09 06:43:15;;;;;;;9.70;4.00;;;;;;;9.89;100.00;99745.98;104778;1276;61132;-70
2022/09/09 06:46:27;;;;;;;9.40;3.10;;;;;;;9.90;100.00;99746.97;105038;1274;62016;-70
2022/09/09 06:49:16;;;;;;;8.30;2.70;;;;;;;9.93;100.00;99750.48;104585;1281;74530;-72
2022/09/09 06:52:04;;;;;;;8.60;2.80;;;;;;;9.94;100.00;99754.65;104422;1279;68314;-71
2022/09/09 06:54:53;;;;;;;7.60;2.80;;;;;;;9.94;100.00;99756.61;104511;1279;73118;-72
2022/09/09 06:57:41;;;;;;;7.80;2.80;;;;;;;9.93;100.00;99755.40;104848;1279;60937;-71
2022/09/09 07:00:33;;;;;;;9.20;3.00;;;;;;;9.93;100.00;99763.56;104418;1279;62306;-71
2022/09/09 07:03:21;;;;;;;7.40;2.90;;;;;;;9.86;100.00;99771.33;104637;1279;73196;-72
2022/09/09 07:06:26;;;;;;;8.60;3.00;;;;;;;9.85;100.00;99768.10;104537;1279;68119;-71
2022/09/09 07:09:16;;;;;;;7.80;2.80;;;;;;;9.83;100.00;99766.98;104649;1279;72937;-71
2022/09/09 07:12:06;;;;;;;8.90;2.80;;;;;;;9.83;100.00;99768.46;104359;1279;61050;-73
2022/09/09 07:14:55;;;;;;;8.40;2.50;;;;;;;9.81;100.00;99772.52;104442;1279;61622;-71
2022/09/09 07:17:43;;;;;;;7.00;2.70;;;;;;;9.79;100.00;99775.17;104377;1279;73290;-72
2022/09/09 07:20:31;;;;;;;7.00;2.50;;;;;;;9.76;100.00;99775.55;104483;1279;69211;-72
2022/09/09 07:23:20;;;;;;;7.00;2.30;;;;;;;9.73;100.00;99774.52;104600;1279;73074;-73
2022/09/09 07:26:16;;;;;;;9.20;3.10;;;;;;;9.70;100.00;99778.31;104375;1281;59804;-72
2022/09/09 07:29:04;;;;;;;7.90;2.90;;;;;;;9.67;100.00;99780.34;104763;1276;59611;-71
2022/09/09 07:31:53;;;;;;;7.60;2.90;;;;;;;9.64;100.00;99778.24;105039;1274;73215;-70
2022/09/09 07:34:46;;;;;;;7.40;2.40;;;;;;;9.64;100.00;99781.11;104588;1275;68595;-71
2022/09/09 07:37:37;;;;;;;7.00;2.60;;;;;;;9.64;100.00;99778.10;104868;1276;73316;-71
2022/09/09 07:40:25;;;;;;;7.30;2.90;;;;;;;9.63;100.00;99780.13;104955;1274;59733;-72
2022/09/09 07:43:13;;;;;;;6.80;2.60;;;;;;;9.64;100.00;99783.25;105011;1274;59656;-70
2022/09/09 07:46:05;;;;;;;8.90;3.30;;;;;;;9.64;100.00;99784.96;104579;1276;72052;-71
2022/09/09 07:48:56;;;;;;;7.60;2.60;;;;;;;9.67;100.00;99787.07;104889;1275;66801;-72
2022/09/09 07:51:48;;;;;;;7.70;3.10;;;;;;;9.70;100.00;99791.92;104819;1275;73250;-71
2022/09/09 07:54:37;;;;;;;8.40;3.10;;;;;;;9.74;100.00;99794.16;104760;1275;61354;-71
2022/09/09 07:57:27;;;;;;;7.70;3.50;;;;;;;9.78;100.00;99791.00;104828;1275;60451;-70
2022/09/09 08:00:15;;;;;;;8.20;3.30;;;;;;;9.82;100.00;99793.46;104891;1276;73343;-73
2022/09/09 08:03:07;;;;;;;7.90;3.20;;;;;;;9.85;100.00;99792.02;104776;1276;68367;-71
2022/09/09 08:06:02;;;;;;;8.90;3.10;;;;;;;9.88;100.00;99794.05;104833;1274;72551;-72
2022/09/09 08:08:51;;;;;;;8.70;3.10;;;;;;;9.93;100.00;99800.41;104876;1275;59792;-72
2022/09/09 08:11:42;;;;;;;7.30;3.10;;;;;;;9.97;100.00;99798.90;105013;1274;60392;-72
2022/09/09 08:14:31;;;;;;;8.10;3.00;;;;;;;10.00;100.00;99798.46;105066;1275;74530;-72
2022/09/09 08:17:19;;;;;;;7.50;2.90;;;;;;;10.02;100.00;99799.70;104929;1274;69662;-72
2022/09/09 08:20:09;;;;;;;8.90;3.40;;;;;;;10.04;100.00;99800.27;105093;1274;72953;-72
2022/09/09 08:22:58;;;;;;;8.80;3.30;;;;;;;10.05;100.00;99804.60;104964;1275;60887;-71
2022/09/09 08:25:45;;;;;;;7.90;3.80;;;;;;;10.07;100.00;99805.01;105024;1276;62172;-71
2022/09/09 08:28:34;;;;;;;9.20;3.80;;;;;;;10.08;100.00;99811.98;104790;1274;73914;-72
2022/09/09 08:31:29;;;;;;;8.10;3.70;;;;;;;10.06;100.00;99807.35;104740;1275;69497;-73
2022/09/09 08:34:20;;;;;;;8.80;3.40;;;;;;;10.03;100.00;99804.93;104606;1276;74459;-74
2022/09/09 08:37:09;;;;;;;8.10;3.60;;;;;;;10.00;100.00;99804.11;104710;1275;59775;-73
2022/09/09 08:39:59;;;;;;;8.80;3.40;;;;;;;9.99;100.00;99811.85;105263;1274;59718;-73
2022/09/09 08:42:55;;;;;;;8.80;3.90;;;;;;;9.95;100.00;99809.52;105237;1275;74758;-76
2022/09/09 08:46:13;;;;;;;8.80;4.10;;;;;;;9.91;100.00;99803.25;105247;1274;68078;-73
2022/09/09 08:49:41;;;;;;;8.50;3.60;;;;;;;9.88;100.00;99805.42;105149;1274;73042;-74
2022/09/09 08:52:38;;;;;;;8.10;3.60;;;;;;;9.89;100.00;99809.43;105061;1274;59820;-72
2022/09/09 08:55:52;;;;;;;8.30;3.70;;;;;;;9.86;100.00;99809.52;105006;1274;60483;-71
2022/09/09 08:58:52;;;;;;;10.10;3.60;;;;;;;9.85;100.00;99809.88;105081;1273;74677;-70
2022/09/09 09:02:22;;;;;;;7.00;2.80;;;;;;;9.85;100.00;99810.94;105147;1273;66871;-73
2022/09/09 09:05:13;;;;;;;8.20;3.20;;;;;;;9.84;100.00;99805.91;104966;1273;72984;-71
2022/09/09 09:08:51;;;;;;;7.50;3.00;;;;;;;9.89;100.00;99806.08;104863;1274;59953;-72
2022/09/09 09:11:54;;;;;;;8.60;3.50;;;;;;;9.86;100.00;99808.40;104998;1273;60399;-70
2022/09/09 09:14:46;;;;;;;7.70;2.90;;;;;;;9.93;100.00;99811.77;105079;1273;72016;-71
2022/09/09 09:17:37;;;;;;;9.60;3.40;;;;;;;9.95;100.00;99814.63;104830;1274;66832;-74
2022/09/09 09:20:41;;;;;;;8.30;3.10;;;;;;;9.95;100.00;99817.12;104833;1274;73136;-71
2022/09/09 09:23:45;;;;;;;7.70;3.20;;;;;;;10.00;100.00;99817.39;105045;1273;59993;-72
2022/09/09 09:26:35;;;;;;;6.90;2.60;;;;;;;10.04;100.00;99818.91;104976;1273;61019;-71
2022/09/09 09:29:26;;;;;;;9.40;2.90;;;;;;;10.11;100.00;99819.11;104742;1274;73313;-71
2022/09/09 09:32:20;;;;;;;7.00;2.90;;;;;;;10.12;100.00;99819.31;104829;1273;68543;-72
2022/09/09 09:35:13;;;;;;;6.60;2.60;;;;;;;10.15;100.00;99825.10;105264;1273;71506;-71
2022/09/09 09:38:27;;;;;;;6.40;2.50;;;;;;;10.16;100.00;99824.11;104837;1274;61226;-71
2022/09/09 09:41:40;;;;;;;6.40;2.50;;;;;;;10.20;100.00;99818.81;104837;1274;59667;-72
2022/09/09 09:44:32;;;;;;;7.60;2.70;;;;;;;10.26;100.00;99821.95;104859;1273;73387;-70
2022/09/09 09:47:26;;;;;;;7.10;2.50;;;;;;;10.34;100.00;99819.51;105033;1273;68084;-71
2022/09/09 09:50:34;;;;;;;6.50;2.80;;;;;;;10.41;100.00;99822.73;105176;1273;74631;-71
2022/09/09 09:53:29;;;;;;;8.90;3.50;;;;;;;10.38;100.00;99826.09;105131;1274;59805;-71
2022/09/09 09:56:28;;;;;;;8.20;3.10;;;;;;;10.31;100.00;99825.77;104551;1274;60423;-71
2022/09/09 09:59:39;;;;;;;7.30;3.20;;;;;;;10.34;100.00;99827.83;105052;1273;73300;-73
2022/09/09 10:02:51;;;;;;;6.80;3.30;;;;;;;10.37;100.00;99825.70;104801;1274;69447;-72
2022/09/09 10:05:46;;;;;;;9.00;3.90;;;;;;;10.38;100.00;99826.50;105028;1274;72624;-70
2022/09/09 10:08:48;;;;;;;9.50;3.40;;;;;;;10.34;100.00;99824.64;104847;1273;59757;-70
2022/09/09 10:12:03;;;;;;;9.90;3.90;;;;;;;10.39;100.00;99828.39;105119;1273;60474;-71
2022/09/09 10:15:24;;;;;;;9.00;3.80;;;;;;;10.42;100.00;99824.45;105168;1274;72272;-73
2022/09/09 10:19:03;;;;;;;8.20;3.60;;;;;;;10.49;100.00;99822.45;104981;1274;68235;-70
2022/09/09 10:22:15;;;;;;;9.00;4.00;;;;;;;10.61;100.00;99817.02;104890;1274;73166;-71
2022/09/09 10:25:59;;;;;;;8.90;3.50;;;;;;;10.67;100.00;99820.30;105052;1273;60775;-71
2022/09/09 10:29:18;;;;;;;8.30;4.60;;;;;;;10.71;100.00;99823.45;105077;1273;59583;-72
2022/09/09 10:32:37;;;;;;;9.70;4.60;;;;;;;10.77;100.00;99820.85;104829;1274;73117;-72
2022/09/09 10:35:33;;;;;;;11.20;4.40;;;;;;;10.88;100.00;99820.88;105138;1275;69564;-72
2022/09/09 10:38:48;;;;;;;9.00;4.50;;;;;;;10.97;100.00;99822.27;105154;1274;73996;-73
2022/09/09 10:42:02;;;;;;;8.90;4.30;;;;;;;10.96;100.00;99826.06;104927;1273;60202;-74
2022/09/09 10:45:44;;;;;;;10.70;4.70;;;;;;;10.96;100.00;99822.29;104829;1274;59577;-72
2022/09/09 10:49:00;;;;;;;9.70;4.70;;;;;;;11.05;100.00;99828.15;104501;1278;71134;-72
2022/09/09 10:52:29;;;;;;;8.00;3.60;;;;;;;11.06;99.77;99827.48;104512;1278;69894;-72
2022/09/09 10:55:28;;;;;;;10.50;5.10;;;;;;;11.12;100.00;99826.16;104747;1277;73252;-73
2022/09/09 10:58:55;;;;;;;10.40;4.40;;;;;;;11.20;100.00;99822.95;104442;1278;59992;-72
2022/09/09 11:02:09;;;;;;;9.80;5.40;;;;;;;11.24;99.89;99821.07;104803;1278;60554;-73
2022/09/09 11:05:18;;;;;;;11.60;5.20;;;;;;;11.22;99.65;99820.88;104528;1278;73409;-73
2022/09/09 11:08:17;;;;;;;9.90;4.90;;;;;;;11.22;99.43;99818.89;104542;1278;69877;-70
2022/09/09 11:11:54;;;;;;;13.30;5.20;;;;;;;11.27;99.88;99814.56;104432;1278;73182;-72
2022/09/09 11:14:50;;;;;;;10.40;4.80;;;;;;;11.35;99.80;99817.10;104315;1281;60435;-71
2022/09/09 11:17:50;;;;;;;11.80;5.60;;;;;;;11.30;99.53;99813.25;104544;1278;61193;-72
2022/09/09 11:20:38;;;;;;;10.70;5.10;;;;;;;11.32;99.48;99820.51;104761;1277;72263;-73
2022/09/09 11:23:53;;;;;;;9.50;4.70;;;;;;;11.40;99.35;99822.85;104768;1274;67774;-73
2022/09/09 11:27:31;;;;;;;11.50;5.10;;;;;;;11.42;99.20;99826.99;105142;1274;74092;-72
2022/09/09 11:30:29;;;;;;;9.50;4.60;;;;;;;11.39;98.93;99828.46;105053;1274;59771;-72
2022/09/09 11:34:18;;;;;;;10.00;5.30;;;;;;;11.38;98.86;99831.07;105112;1274;62820;-73
2022/09/09 11:37:39;;;;;;;10.60;5.50;;;;;;;11.32;99.06;99839.69;104248;1282;74600;-73
2022/09/09 11:40:32;;;;;;;12.10;5.40;;;;;;;11.28;99.51;99835.06;104299;1284;67338;-73
2022/09/09 11:43:52;;;;;;;9.80;5.00;;;;;;;11.30;99.95;99836.02;104159;1284;71803;-74
2022/09/09 11:46:41;;;;;;;11.10;5.20;;;;;;;11.38;99.92;99837.60;103937;1284;59690;-74
2022/09/09 11:49:42;;;;;;;11.10;5.10;;;;;;;11.43;99.75;99836.36;104140;1282;59872;-73
2022/09/09 11:52:46;;;;;;;10.10;4.90;;;;;;;11.50;99.89;99836.58;104112;1284;73781;-72
2022/09/09 11:55:36;;;;;;;10.80;5.60;;;;;;;11.53;99.71;99839.23;104033;1284;66828;-74
2022/09/09 11:58:24;;;;;;;9.70;5.20;;;;;;;11.50;99.36;99841.45;104159;1284;72787;-72
2022/09/09 12:01:34;;;;;;;10.70;5.10;;;;;;;11.50;99.15;99838.58;104183;1284;59728;-73
2022/09/09 12:04:33;;;;;;;9.80;5.00;;;;;;;11.54;99.75;99843.25;104183;1284;60019;-76
2022/09/09 12:07:42;;;;;;;10.50;6.00;;;;;;;11.54;99.33;99836.66;104755;1282;70844;-76
2022/09/09 12:10:33;;;;;;;10.70;5.00;;;;;;;11.57;99.84;99837.55;104123;1284;66856;-77
2022/09/09 12:13:27;;;;;;;11.20;5.30;;;;;;;11.54;99.44;99836.80;104479;1279;74847;-77
2022/09/09 12:16:38;;;;;;;11.90;6.00;;;;;;;11.48;99.65;99837.70;105184;1274;59775;-77
2022/09/09 12:19:26;;;;;;;9.60;5.10;;;;;;;11.45;99.92;99841.48;105050;1274;59530;-76
2022/09/09 12:22:54;;;;;;;10.20;5.20;;;;;;;11.46;100.00;99844.83;105216;1274;73285;-77
2022/09/09 12:26:06;;;;;;;9.30;5.30;;;;;;;11.42;100.00;99846.68;105061;1274;68022;-77
2022/09/09 12:29:20;;;;;;;9.90;5.10;;;;;;;11.43;99.96;99845.25;104889;1274;72630;-78
2022/09/09 12:32:20;;;;;;;10.80;5.40;;;;;;;11.40;100.00;99842.23;104793;1273;59662;-78
2022/09/09 12:35:28;;;;;;;9.60;4.90;;;;;;;11.38;100.00;99840.63;104757;1274;62061;-75
2022/09/09 12:38:47;;;;;;;11.60;5.60;;;;;;;11.40;100.00;99836.58;105136;1274;74151;-73
2022/09/09 12:41:36;;;;;;;12.00;5.30;;;;;;;11.45;100.00;99838.33;105094;1275;69794;-75
2022/09/09 12:44:32;;;;;;;10.30;5.50;;;;;;;11.48;100.00;99840.21;105180;1273;74362;-76
2022/09/09 12:47:48;;;;;;;10.10;4.90;;;;;;;11.56;100.00;99836.48;105085;1274;60200;-78
2022/09/09 12:50:52;;;;;;;10.20;4.80;;;;;;;11.59;100.00;99836.41;105283;1274;59754;-79
2022/09/09 12:53:50;;;;;;;11.60;4.70;;;;;;;11.64;100.00;99840.08;105429;1274;73328;-76
2022/09/09 12:56:37;;;;;;;12.70;4.80;;;;;;;11.63;100.00;99837.49;105213;1274;67173;-76
2022/09/09 12:59:39;;;;;;;13.70;4.90;;;;;;;11.60;100.00;99838.09;105070;1273;73531;-74
2022/09/09 13:02:28;;;;;;;9.60;4.60;;;;;;;11.63;100.00;99841.04;105118;1274;59660;-77
2022/09/09 13:05:38;;;;;;;9.60;4.70;;;;;;;11.66;100.00;99843.09;104096;1274;1578535;-75
2022/09/09 13:08:26;;;;;;;8.70;4.30;;;;;;;11.68;100.00;99846.84;105062;1274;73387;-78
2022/09/09 13:11:23;;;;;;;9.70;4.80;;;;;;;11.69;100.00;99845.50;104842;1274;68333;-74
2022/09/09 13:14:37;;;;;;;8.50;4.70;;;;;;;11.70;100.00;99848.26;104942;1273;72796;-73
2022/09/09 13:17:30;;;;;;;8.20;4.10;;;;;;;11.73;100.00;99836.23;104874;1273;61203;-77
2022/09/09 13:20:20;;;;;;;8.80;4.70;;;;;;;11.81;100.00;99840.58;104849;1274;60261;-75
2022/09/09 13:23:12;;;;;;;8.30;4.30;;;;;;;11.82;99.90;99837.98;104920;1273;72092;-73
2022/09/09 13:26:05;;;;;;;8.00;4.00;;;;;;;11.78;99.96;99833.02;104866;1274;66957;-76
2022/09/09 13:28:55;;;;;;;8.60;4.60;;;;;;;11.77;100.00;99832.37;105176;1273;72663;-75
2022/09/09 13:31:53;;;;;;;8.60;4.40;;;;;;;11.79;100.00;99828.35;104830;1274;61451;-80
2022/09/09 13:34:57;;;;;;;9.30;4.20;;;;;;;11.83;100.00;99827.22;105154;1274;61878;-75
2022/09/09 13:37:47;;;;;;;7.70;4.00;;;;;;;11.90;100.00;99824.66;104893;1273;73485;-78
2022/09/09 13:40:37;;;;;;;8.50;3.90;;;;;;;11.94;99.77;99820.06;104856;1275;67901;-77
2022/09/09 13:43:26;;;;;;;7.10;3.50;;;;;;;11.94;99.25;99819.33;105047;1276;71872;-71